Latest Weather Observations for Coonawarra

IDS60801

Issued at 12:02 pm CST Tuesday 21 April 2015 (issued every 30 minutes, with the page automatically refreshed every 10 minutes)

About weather observations | Map of weather stations | Latest weather observations for SA | Other Formats
Station Details ID: 026091 Name: COONAWARRA Lat: -37.29 Lon: 140.83 Height: 57.0 m
Data from the previous 72 hours. | See also: Recent months at Coonawarra
Date/Time
CST
Temp
°C
App
Temp
°C
Dew
Point
Rel
Hum
%
Delta-T
°C
Wind Press
QNH
hPa
Press
MSL
hPa
Rain
since 9 am
mm
Dir
 
Spd
km/h
Gust
km/h
Spd
kts
Gust
kts
21/12:00pm 16.4 11.7 6.0 50 5.0 S 20 35 11 19 1032.7 1032.7 0.0
21/11:30am 16.8 11.2 5.2 46 5.5 SE 24 35 13 19 1033.3 1033.3 0.0
21/11:00am 16.6 10.9 4.7 45 5.6 SE 24 35 13 19 1033.8 1033.8 0.0
21/10:30am 15.3 10.8 6.9 57 4.1 SSE 20 30 11 16 1034.3 1034.3 0.0
21/10:00am 15.7 11.1 6.6 54 4.4 SE 20 35 11 19 1034.6 1034.6 0.0
21/09:30am 14.9 11.0 6.9 58 3.9 SE 17 32 9 17 1034.7 1034.7 0.0
21/09:00am 13.5 10.5 7.8 68 2.8 SSE 13 19 7 10 1035.0 1035.0 0.0
21/08:30am 10.9 9.3 8.2 83 1.3 SE 6 7 3 4 1035.0 1035.0 0.0
21/08:00am 7.2 6.4 6.3 94 0.4 CALM 0 0 0 0 1034.8 1034.8 0.0
21/07:30am 4.6 3.3 3.9 95 0.3 CALM 0 0 0 0 1034.7 1034.7 0.0
21/07:00am 2.7 -0.1 2.2 96 0.2 E 6 9 3 5 1034.6 1034.6 0.0
21/06:30am 2.6 -0.2 2.3 98 0.1 SSE 6 7 3 4 1034.4 1034.4 0.0
21/06:00am 3.2 0.3 2.4 94 0.3 SSE 7 9 4 5 1034.4 1034.4 0.0
21/05:30am 3.2 0.3 2.4 94 0.3 S 7 9 4 5 1034.4 1034.4 0.0
21/05:00am 3.0 0.0 2.2 94 0.3 S 7 7 4 4 1034.4 1034.4 0.0
21/04:30am 4.5 1.5 4.0 97 0.2 S 9 9 5 5 1034.4 1034.4 0.0
21/04:00am 5.8 3.3 4.9 94 0.4 SSE 7 9 4 5 1034.4 1034.4 0.0
21/03:30am 6.2 3.5 5.5 95 0.3 S 9 11 5 6 1034.6 1034.6 0.0
21/03:00am 5.5 2.6 4.8 95 0.3 SSW 9 11 5 6 1034.6 1034.6 0.0
21/02:30am 4.5 3.1 3.5 93 0.4 CALM 0 0 0 0 1035.1 1035.1 0.0
21/02:00am 5.3 4.1 4.6 95 0.3 CALM 0 0 0 0 1035.5 1035.5 0.0
21/01:30am 7.2 6.3 6.1 93 0.5 CALM 0 0 0 0 1035.8 1035.8 0.0
21/01:00am 7.6 5.6 6.3 91 0.6 S 6 6 3 3 1035.9 1035.9 0.0
21/12:30am 7.8 5.7 6.5 91 0.6 SSW 7 9 4 5 1036.1 1036.1 0.0
21/12:00am 7.2 4.9 5.9 91 0.6 SSW 7 9 4 5 1036.3 1036.3 0.0
 
Date/Time
CST
Temp
°C
App
Temp
°C
Dew
Point
Rel
Hum
%
Delta-T
°C
Wind Press
QNH
hPa
Press
MSL
hPa
Rain
since 9 am
mm
Dir
 
Spd
km/h
Gust
km/h
Spd
kts
Gust
kts
20/11:30pm 7.0 4.7 5.6 91 0.6 S 7 9 4 5 1036.4 1036.4 0.0
20/11:00pm 6.6 4.1 5.0 89 0.7 SSW 7 9 4 5 1036.6 1036.6 0.0
20/10:30pm 7.1 4.6 5.0 86 0.9 SSE 7 9 4 5 1036.7 1036.7 0.0
20/10:00pm 7.1 4.3 5.3 88 0.8 S 9 9 5 5 1036.9 1036.9 0.0
20/09:30pm 7.9 5.2 5.4 84 1.1 SSE 9 13 5 7 1037.0 1037.0 0.0
20/09:00pm 8.2 5.5 5.7 84 1.1 S 9 11 5 6 1036.9 1036.9 0.0
20/08:30pm 7.7 5.0 5.4 85 1.0 S 9 11 5 6 1036.9 1036.9 0.0
20/08:00pm 8.8 6.1 5.4 79 1.5 SSE 9 11 5 6 1036.9 1036.9 0.0
20/07:30pm 9.6 7.0 5.9 78 1.7 SSE 9 13 5 7 1037.1 1037.1 0.0
20/07:00pm 10.1 7.1 5.9 75 1.9 S 11 15 6 8 1037.0 1037.0 0.0
20/06:30pm 10.8 7.7 5.5 70 2.4 S 11 15 6 8 1036.7 1036.7 0.0
20/06:00pm 12.0 8.0 4.7 61 3.3 S 15 20 8 11 1036.4 1036.4 0.0
20/05:30pm 13.0 8.1 4.1 54 4.0 S 19 26 10 14 1036.2 1036.2 0.0
20/05:00pm 14.0 9.2 4.6 53 4.4 S 19 32 10 17 1036.0 1036.0 0.0
20/04:30pm 14.9 10.0 3.9 47 5.0 SSE 19 28 10 15 1036.0 1036.0 0.0
20/04:00pm 15.3 10.2 3.9 46 5.3 S 20 35 11 19 1036.0 1036.0 0.0
20/03:30pm 14.6 9.1 3.8 48 4.9 SSE 22 35 12 19 1036.0 1036.0 0.0
20/03:00pm 14.8 8.7 2.9 44 5.3 SSE 24 33 13 18 1036.1 1036.1 0.0
20/02:30pm 15.6 10.3 2.9 42 5.7 SSE 20 28 11 15 1036.0 1036.0 0.0
20/02:00pm 15.1 10.3 4.8 50 4.8 SSE 19 26 10 14 1036.1 1036.1 0.0
20/01:30pm 15.3 10.3 4.8 49 4.9 S 20 30 11 16 1036.3 1036.3 0.0
20/01:00pm 14.5 9.8 5.0 53 4.5 SSE 19 24 10 13 1036.7 1036.7 0.0
20/12:30pm 13.8 9.7 6.4 61 3.5 SSE 17 26 9 14 1037.2 1037.2 0.0
20/12:00pm 13.8 9.2 6.4 61 3.5 SE 20 32 11 17 1037.7 1037.7 0.0
20/11:30am 15.5 11.3 5.8 52 4.6 SSE 17 24 9 13 1038.0 1038.0 0.0
20/11:00am 14.5 10.1 5.0 53 4.5 SSE 17 30 9 16 1038.4 1038.4 0.0
20/10:30am 13.8 9.5 5.4 57 3.9 SSE 17 24 9 13 1038.6 1038.6 0.0
20/10:00am 13.1 9.6 5.3 59 3.6 SE 13 20 7 11 1038.8 1038.8 0.0
20/09:30am 10.9 8.2 5.6 70 2.4 S 9 13 5 7 1039.1 1039.1 0.0
20/09:00am 8.9 7.1 5.6 80 1.5 SSW 4 9 2 5 1039.0 1039.0 0.2
20/08:30am 6.4 5.1 4.3 86 0.9 CALM 0 4 0 2 1039.1 1039.1 0.2
20/08:00am 5.2 2.6 3.2 87 0.8 ESE 6 7 3 4 1039.0 1039.0 0.2
20/07:30am 2.6 1.0 2.3 98 0.1 CALM 0 0 0 0 1038.8 1038.8 0.2
20/07:00am 1.4 -1.2 0.9 96 0.2 W 4 6 2 3 1038.3 1038.3 0.2
20/06:30am 1.7 -0.1 0.9 94 0.3 CALM 0 4 0 2 1038.4 1038.4 0.2
20/06:00am 0.5 -2.6 -0.1 96 0.2 ENE 6 7 3 4 1038.3 1038.3 0.2
20/05:30am 0.7 -3.0 0.1 96 0.2 NE 9 9 5 5 1038.3 1038.3 0.2
20/05:00am 1.6 -1.0 0.8 94 0.3 E 4 7 2 4 1038.2 1038.2 0.2
20/04:30am -0.1 - - - - SE 2 7 1 4 1038.3 1038.3 0.2
20/04:00am -0.7 - - - - S 6 7 3 4 1038.0 1038.0 0.2
20/03:30am -0.5 - - - - CALM 0 0 0 0 1037.8 1037.8 0.2
20/03:00am -0.7 - - - - CALM 0 0 0 0 1037.7 1037.7 0.2
20/02:30am 0.0 - - - - CALM 0 0 0 0 1037.9 1037.9 0.2
20/02:00am 0.2 - - - - CALM 0 0 0 0 1038.1 1038.1 0.2
20/01:30am 0.7 -2.6 -0.1 94 0.3 SW 7 7 4 4 1038.0 1038.0 0.2
20/01:00am 0.8 -1.2 0.2 96 0.2 CALM 0 0 0 0 1038.0 1038.0 0.2
20/12:30am 2.1 -0.9 1.0 92 0.4 N 6 7 3 4 1038.0 1038.0 0.2
20/12:00am 3.3 1.3 2.3 93 0.4 ENE 2 6 1 3 1038.0 1038.0 0.2
 
Date/Time
CST
Temp
°C
App
Temp
°C
Dew
Point
Rel
Hum
%
Delta-T
°C
Wind Press
QNH
hPa
Press
MSL
hPa
Rain
since 9 am
mm
Dir
 
Spd
km/h
Gust
km/h
Spd
kts
Gust
kts
19/11:30pm 3.1 0.3 1.8 91 0.5 ESE 6 9 3 5 1038.0 1038.0 0.2
19/11:00pm 1.8 -1.5 0.4 90 0.5 SSE 7 7 4 4 1038.1 1038.1 0.2
19/10:30pm 2.8 -0.8 0.9 87 0.7 SSW 9 11 5 6 1038.0 1038.0 0.2
19/10:00pm 4.4 0.6 1.8 83 1.0 SSW 11 13 6 7 1038.0 1038.0 0.2
19/09:30pm 4.6 1.2 2.1 84 1.0 SSW 9 11 5 6 1037.9 1037.9 0.2
19/09:00pm 5.2 1.9 2.5 83 1.1 SSW 9 11 5 6 1037.7 1037.7 0.2
19/08:30pm 4.1 0.2 1.2 81 1.1 SSW 11 13 6 7 1037.4 1037.4 0.2
19/08:00pm 3.6 0.1 1.5 86 0.8 SW 9 11 5 6 1036.8 1036.8 0.2
19/07:30pm 4.2 1.4 1.9 85 0.9 S 6 9 3 5 1036.7 1036.7 0.2
19/07:00pm 5.5 2.8 2.8 83 1.1 S 6 7 3 4 1036.4 1036.4 0.2
19/06:30pm 8.4 4.9 1.2 60 2.9 S 9 11 5 6 1035.7 1035.7 0.2
19/06:00pm 10.2 6.2 0.6 51 3.9 SSE 11 15 6 8 1035.3 1035.3 0.2
19/05:30pm 11.5 5.9 -0.2 44 4.7 SSE 19 26 10 14 1035.0 1035.0 0.2
19/05:00pm 12.4 6.9 0.6 44 4.9 SSE 19 30 10 16 1034.5 1034.5 0.2
19/04:30pm 12.8 7.1 0.5 43 5.1 S 20 33 11 18 1034.1 1034.1 0.2
19/04:00pm 14.3 7.6 -1.3 34 6.4 S 24 32 13 17 1033.7 1033.7 0.2
19/03:30pm 14.2 7.5 -1.1 35 6.2 S 24 37 13 20 1033.5 1033.5 0.2
19/03:00pm 14.7 7.9 0.8 38 5.9 S 26 39 14 21 1033.2 1033.2 0.2
19/02:30pm 13.4 6.5 0.1 40 5.5 SSE 26 37 14 20 1033.0 1033.0 0.2
19/02:00pm 14.9 8.4 0.2 36 6.2 S 24 41 13 22 1032.7 1032.7 0.2
19/01:30pm 14.0 6.5 1.1 41 5.5 S 30 43 16 23 1032.8 1032.8 0.0
19/01:00pm 13.6 7.3 1.4 43 5.3 S 24 33 13 18 1032.7 1032.7 0.0
19/12:30pm 11.2 3.9 5.3 67 2.7 SSW 33 56 18 30 1033.0 1033.0 0.0
19/12:25pm 13.0 6.2 3.0 50 4.4 SSW 28 56 15 30 1032.7 1032.7 0.0
19/12:00pm 13.7 6.6 1.6 44 5.2 SSW 28 44 15 24 1032.8 1032.8 0.0
19/11:30am 15.1 8.6 0.1 36 6.3 S 24 32 13 17 1032.6 1032.6 0.0
19/11:00am 13.8 5.7 -0.6 37 5.9 SSW 32 44 17 24 1032.5 1032.5 0.0
19/10:30am 13.3 6.4 2.8 49 4.6 S 28 37 15 20 1032.5 1032.5 0.0
19/10:00am 12.4 6.0 3.3 54 4.0 SSW 26 35 14 19 1032.0 1032.0 0.0
19/09:30am 12.1 6.1 3.5 55 3.8 S 24 33 13 18 1031.6 1031.6 0.0
19/09:00am 11.1 5.6 3.8 61 3.2 S 22 28 12 15 1031.4 1031.4 2.6
19/08:30am 10.4 5.6 5.6 72 2.2 SSW 20 30 11 16 1031.2 1031.2 2.6
19/08:00am 8.2 5.1 5.5 83 1.2 SW 11 15 6 8 1030.5 1030.5 2.6
19/07:30am 6.6 4.1 5.0 89 0.7 SSW 7 9 4 5 1029.6 1029.6 2.6
19/07:00am 5.7 2.3 4.0 89 0.7 SSW 11 15 6 8 1028.8 1028.8 2.6
19/06:30am 5.3 1.9 4.1 92 0.5 SSW 11 13 6 7 1028.2 1028.2 2.6
19/06:00am 6.1 2.4 4.5 89 0.7 SSW 13 19 7 10 1027.6 1027.6 2.6
19/05:30am 4.1 1.0 3.6 97 0.2 SW 9 11 5 6 1027.0 1027.0 2.6
19/05:00am 1.5 -1.7 1.0 96 0.2 SSW 7 9 4 5 1026.6 1026.6 2.6
19/04:30am 1.4 -1.8 0.9 96 0.2 SSW 7 7 4 4 1025.9 1025.8 2.6
19/04:00am 2.0 -1.1 1.5 96 0.2 SW 7 7 4 4 1025.6 1025.5 2.6
19/03:30am 2.6 -0.4 1.8 94 0.3 W 7 9 4 5 1025.3 1025.2 2.6
19/03:00am 1.8 0.0 1.0 94 0.3 CALM 0 7 0 4 1024.9 1024.8 2.6
19/02:30am 3.1 1.5 2.6 96 0.2 CALM 0 0 0 0 1024.7 1024.6 2.6
19/02:00am 3.0 0.2 2.2 94 0.3 NW 6 7 3 4 1024.4 1024.3 2.6
19/01:30am 3.3 0.4 2.8 97 0.2 WNW 7 9 4 5 1024.1 1024.0 2.6
19/01:00am 3.8 1.2 3.3 97 0.2 SW 6 7 3 4 1023.8 1023.7 2.6
19/12:30am 4.8 1.7 3.8 93 0.4 SSW 9 13 5 7 1023.6 1023.5 2.6
19/12:00am 5.8 2.9 4.9 94 0.4 S 9 13 5 7 1023.1 1023.1 2.6
 
Date/Time
CST
Temp
°C
App
Temp
°C
Dew
Point
Rel
Hum
%
Delta-T
°C
Wind Press
QNH
hPa
Press
MSL
hPa
Rain
since 9 am
mm
Dir
 
Spd
km/h
Gust
km/h
Spd
kts
Gust
kts
18/11:30pm 6.7 3.9 5.1 89 0.7 SW 9 13 5 7 1022.6 1022.6 2.6
18/11:00pm 7.2 3.6 5.2 87 0.9 WSW 13 15 7 8 1022.2 1022.2 2.6
18/10:30pm 7.4 4.3 5.4 87 0.9 WSW 11 13 6 7 1021.9 1021.9 2.6
18/10:00pm 7.8 4.8 6.0 88 0.8 SW 11 13 6 7 1021.6 1021.6 2.6
18/09:30pm 6.2 3.8 5.3 94 0.4 WSW 7 9 4 5 1021.3 1021.3 2.6
18/09:00pm 7.7 5.2 6.6 93 0.5 WSW 9 11 5 6 1020.8 1020.8 2.6
18/08:30pm 8.9 6.5 7.2 89 0.8 SW 9 11 5 6 1020.2 1020.2 2.6
18/08:00pm 8.0 5.1 6.7 91 0.6 W 11 13 6 7 1019.7 1019.7 2.6
18/07:30pm 9.0 6.7 7.5 90 0.7 WSW 9 11 5 6 1019.0 1019.0 2.6
18/07:00pm 10.1 7.7 8.5 90 0.8 SW 11 15 6 8 1018.6 1018.6 2.6
18/06:30pm 10.6 8.8 9.6 93 0.5 WSW 9 11 5 6 1017.9 1017.9 2.6
18/06:00pm 11.4 9.8 10.2 92 0.6 WSW 9 11 5 6 1017.3 1017.3 2.6
18/05:30pm 11.8 9.9 10.4 91 0.7 WSW 11 15 6 8 1016.7 1016.7 2.6
18/05:00pm 12.0 10.2 10.7 92 0.7 WSW 11 15 6 8 1016.2 1016.2 2.6
18/04:30pm 12.0 10.2 10.7 92 0.7 SW 11 20 6 11 1015.6 1015.6 2.2
18/04:00pm 12.1 8.9 10.0 87 1.1 SW 17 24 9 13 1015.4 1015.4 2.2
18/03:30pm 11.9 7.3 9.5 85 1.2 SW 24 35 13 19 1015.0 1015.0 2.0
18/03:16pm 12.3 7.3 11.0 92 0.7 SW 28 46 15 25 1014.8 1014.8 2.0
18/03:00pm 12.6 9.0 11.9 95 0.4 SSW 22 33 12 18 1014.5 1014.5 1.8
18/02:30pm 13.1 9.2 12.2 94 0.5 SW 24 35 13 19 1014.1 1014.1 1.6
18/02:00pm 13.3 8.7 12.4 94 0.5 SSW 28 39 15 21 1013.4 1013.4 1.2
18/01:30pm 17.8 13.0 11.8 68 3.3 WNW 28 44 15 24 1012.6 1012.6 0.0
18/01:10pm 18.8 13.5 11.1 61 4.2 WNW 30 48 16 26 1012.3 1012.3 0.0
18/01:00pm 20.1 16.0 11.6 58 4.7 NW 24 35 13 19 1012.2 1012.2 0.0
18/12:30pm 18.1 13.4 12.1 68 3.3 NW 28 41 15 22 1012.8 1012.8 0.0
18/12:14pm 18.6 13.8 11.5 63 3.9 NW 28 46 15 25 1013.0 1013.0 0.0

Other Formats:

Comma delimited format used in spreadsheet applications
http://www.bom.gov.au/fwo/IDS60801/IDS60801.94817.axf

JavaScript Object Notation format (JSON) in row-major order
http://www.bom.gov.au/fwo/IDS60801/IDS60801.94817.json